Time;durP1;ratioP1;P1;durP2;ratioP2;P2;SDS_P1;SDS_P2;PMS_P1;PMS_P2;Temp;Humidity;BMP_temperature;BMP_pressure;BME280_temperature;BME280_humidity;BME280_pressure;Samples;Min_cycle;Max_cycle;Signal;HPM_P1;HPM_P2
2022/01/30 00:01:49;;;;;;;52.17;23.13;;;;;;;4.30;67.23;101458.44;4965287;28;20527;-78
2022/01/30 00:04:34;;;;;;;71.10;30.85;;;;;;;4.32;65.26;101450.91;4958469;28;20415;-78
2022/01/30 00:07:18;;;;;;;55.40;24.75;;;;;;;4.43;65.70;101462.56;4964426;28;20054;-78
2022/01/30 00:10:06;;;;;;;52.33;23.73;;;;;;;4.54;63.97;101442.75;4963579;28;20050;-78
2022/01/30 00:12:57;;;;;;;69.05;29.13;;;;;;;4.09;61.44;101439.66;4962844;28;20054;-78
2022/01/30 00:15:48;;;;;;;73.18;30.70;;;;;;;3.79;63.60;101430.19;4959142;28;20054;-78
2022/01/30 00:24:20;;;;;;;75.07;33.63;;;;;;;4.04;66.88;101418.06;4963201;28;20416;-78
2022/01/30 00:27:11;;;;;;;75.15;32.88;;;;;;;4.14;66.61;101408.22;4962882;28;20058;-79
2022/01/30 00:29:56;;;;;;;88.60;38.20;;;;;;;4.08;65.81;101393.09;4965024;28;20046;-78
2022/01/30 00:32:41;;;;;;;58.92;29.23;;;;;;;4.07;64.37;101377.19;4962778;28;20046;-79
2022/01/30 00:35:26;;;;;;;73.35;31.85;;;;;;;4.08;64.21;101371.56;4959370;28;20058;-78
2022/01/30 00:38:16;;;;;;;59.22;24.33;;;;;;;4.19;63.40;101378.66;4958730;28;20115;-78
2022/01/30 00:41:01;;;;;;;69.95;33.47;;;;;;;4.11;64.52;101372.94;4960835;28;20050;-79
2022/01/30 00:43:46;;;;;;;56.72;28.63;;;;;;;3.27;65.79;101375.28;4958923;28;20526;-78
2022/01/30 00:46:30;;;;;;;52.92;25.10;;;;;;;3.32;65.77;101365.41;4959013;29;20104;-78
2022/01/30 00:49:15;;;;;;;60.88;27.08;;;;;;;3.45;65.54;101351.56;4960652;28;20046;-78
2022/01/30 00:52:00;;;;;;;47.10;23.43;;;;;;;3.78;67.41;101345.19;4959280;28;20070;-78
2022/01/30 00:54:45;;;;;;;54.95;23.08;;;;;;;3.77;64.97;101346.25;4957289;29;20069;-78
2022/01/30 00:57:30;;;;;;;44.35;22.45;;;;;;;3.80;63.88;101331.50;4959549;28;20055;-78
2022/01/30 01:00:15;;;;;;;55.83;25.52;;;;;;;3.94;63.80;101337.25;4957627;28;20058;-77
2022/01/30 01:03:01;;;;;;;60.88;29.38;;;;;;;3.72;64.83;101329.25;4953527;28;20058;-78
2022/01/30 01:05:45;;;;;;;53.25;23.42;;;;;;;3.53;63.13;101328.00;4952698;28;20054;-77
2022/01/30 01:08:46;;;;;;;55.75;24.45;;;;;;;3.64;63.59;101324.34;4955352;28;20050;-77
2022/01/30 01:23:38;;;;;;;58.38;27.02;;;;;;;3.80;61.97;101308.09;4960897;29;20542;-79
2022/01/30 01:26:24;;;;;;;55.10;26.38;;;;;;;3.72;64.39;101297.78;4964726;28;20526;-78
2022/01/30 01:29:09;;;;;;;57.20;26.70;;;;;;;3.76;64.39;101287.31;4963267;28;20074;-78
2022/01/30 01:31:54;;;;;;;49.25;22.00;;;;;;;3.77;64.86;101289.75;4960493;28;20058;-79
2022/01/30 01:34:40;;;;;;;44.83;21.40;;;;;;;3.37;64.47;101294.75;4959241;29;20434;-78
2022/01/30 01:37:25;;;;;;;47.90;24.27;;;;;;;3.23;66.76;101288.97;4959267;28;20058;-76
2022/01/30 01:40:10;;;;;;;53.22;22.05;;;;;;;3.37;65.51;101287.50;4952989;29;20046;-77
2022/01/30 01:43:00;;;;;;;58.92;28.25;;;;;;;3.63;65.15;101283.19;4952386;28;20054;-76
2022/01/30 01:45:49;;;;;;;59.55;26.77;;;;;;;3.56;65.51;101265.63;4952473;28;20038;-77
2022/01/30 01:48:35;;;;;;;59.30;26.23;;;;;;;3.55;63.84;101264.03;4953814;29;20050;-77
2022/01/30 01:51:23;;;;;;;58.05;27.23;;;;;;;3.68;62.03;101252.84;4951479;28;20050;-77
2022/01/30 01:54:08;;;;;;;62.05;28.30;;;;;;;3.34;64.34;101263.84;4956349;29;20054;-77
2022/01/30 01:56:54;;;;;;;56.83;27.00;;;;;;;3.12;65.00;101243.44;4955321;28;20054;-77
2022/01/30 01:59:52;;;;;;;70.57;25.45;;;;;;;3.32;63.09;101235.56;4952326;28;20427;-77
2022/01/30 02:02:57;;;;;;;54.38;24.92;;;;;;;3.40;63.43;101249.34;4956754;29;20050;-77
2022/01/30 02:05:48;;;;;;;40.95;17.67;;;;;;;3.44;62.82;101244.31;4951721;29;20050;-76
2022/01/30 02:08:36;;;;;;;50.90;23.30;;;;;;;3.40;62.42;101243.97;4952742;29;20618;-77
2022/01/30 02:11:37;;;;;;;51.17;23.15;;;;;;;2.98;61.86;101232.28;4955259;28;20050;-78
2022/01/30 02:14:42;;;;;;;53.75;23.48;;;;;;;2.78;62.54;101243.59;4955078;28;20054;-77
2022/01/30 02:26:41;;;;;;;60.28;23.08;;;;;;;2.64;62.54;101209.34;4955845;29;20046;-77
2022/01/30 02:29:26;;;;;;;55.00;23.45;;;;;;;2.32;63.20;101207.31;4960896;28;20116;-77
2022/01/30 02:32:11;;;;;;;38.50;17.38;;;;;;;2.25;63.60;101212.03;4955536;28;20050;-77
2022/01/30 02:34:56;;;;;;;42.97;17.83;;;;;;;2.44;63.41;101199.13;4956532;28;20128;-77
2022/01/30 02:37:43;;;;;;;46.53;21.05;;;;;;;2.70;62.91;101214.50;4960182;28;20066;-77
2022/01/30 02:40:32;;;;;;;45.83;21.58;;;;;;;2.63;62.46;101202.34;4958487;28;20050;-77
2022/01/30 02:43:21;;;;;;;51.40;22.23;;;;;;;2.44;62.08;101188.41;4955644;28;20066;-77
2022/01/30 02:46:22;;;;;;;51.55;22.95;;;;;;;2.60;62.20;101198.25;4959848;28;20070;-78
2022/01/30 02:52:02;;;;;;;46.17;21.02;;;;;;;2.71;62.27;101188.47;4954549;28;20519;-77
2022/01/30 02:54:47;;;;;;;45.65;22.27;;;;;;;2.84;61.63;101182.72;4958324;28;20424;-77
2022/01/30 02:57:32;;;;;;;51.33;19.52;;;;;;;2.34;62.54;101178.34;4956938;28;20057;-77
2022/01/30 03:00:17;;;;;;;32.47;15.32;;;;;;;2.90;65.65;101176.31;4955137;28;20046;-77
2022/01/30 03:03:02;;;;;;;38.63;17.08;;;;;;;2.84;61.72;101167.41;4956885;28;20515;-77
2022/01/30 03:05:47;;;;;;;31.77;15.32;;;;;;;2.99;62.03;101175.63;4957010;28;20054;-78
2022/01/30 03:08:31;;;;;;;42.92;16.98;;;;;;;2.79;61.47;101174.59;4960483;28;20050;-78
2022/01/30 03:11:17;;;;;;;37.42;16.13;;;;;;;2.42;62.01;101185.97;4959086;28;20054;-78
2022/01/30 03:14:03;;;;;;;33.88;16.48;;;;;;;2.71;63.39;101186.59;4959252;28;20054;-77
2022/01/30 03:16:48;;;;;;;52.75;21.35;;;;;;;2.83;64.75;101171.16;4959650;28;20133;-77
2022/01/30 03:19:33;;;;;;;40.55;17.75;;;;;;;1.99;63.22;101169.84;4958155;28;20050;-77
2022/01/30 03:22:18;;;;;;;37.45;17.77;;;;;;;2.23;64.52;101165.88;4957078;29;20396;-77
2022/01/30 03:25:03;;;;;;;36.92;18.67;;;;;;;2.56;63.56;101171.13;4956038;28;20058;-77
2022/01/30 03:28:10;;;;;;;51.95;22.13;;;;;;;2.61;64.18;101162.31;4956401;28;20050;-77
2022/01/30 03:31:03;;;;;;;49.92;21.73;;;;;;;2.58;62.50;101147.53;4954714;28;20051;-77
2022/01/30 03:33:54;;;;;;;48.60;21.08;;;;;;;2.83;61.55;101143.50;4957380;28;20051;-78
2022/01/30 03:36:51;;;;;;;45.63;21.58;;;;;;;2.66;62.85;101164.25;4958954;28;20046;-78
2022/01/30 03:39:37;;;;;;;48.17;22.45;;;;;;;2.59;63.37;101157.19;4963421;28;20054;-78
2022/01/30 03:42:22;;;;;;;37.63;15.95;;;;;;;2.74;62.89;101142.34;4957737;28;20054;-77
2022/01/30 03:45:07;;;;;;;37.83;16.15;;;;;;;2.63;62.85;101148.66;4955387;28;20058;-77
2022/01/30 03:47:55;;;;;;;36.33;16.95;;;;;;;2.72;62.10;101141.75;4953420;28;20054;-77
2022/01/30 03:50:45;;;;;;;46.88;20.98;;;;;;;2.74;61.38;101145.00;4957209;28;20051;-77
2022/01/30 03:53:33;;;;;;;37.13;16.15;;;;;;;2.87;62.01;101142.72;4955161;28;20073;-78
2022/01/30 03:56:19;;;;;;;42.35;20.05;;;;;;;2.24;61.29;101140.66;4960002;28;20054;-77
2022/01/30 03:59:04;;;;;;;39.03;17.35;;;;;;;1.95;62.67;101131.16;4954121;28;20054;-77
2022/01/30 04:01:50;;;;;;;55.30;22.42;;;;;;;2.20;63.33;101131.50;4955441;28;20070;-77
2022/01/30 04:04:35;;;;;;;39.20;17.92;;;;;;;1.98;63.31;101134.16;4952964;28;20058;-77
2022/01/30 04:07:22;;;;;;;41.33;19.40;;;;;;;1.89;63.73;101137.50;4954271;29;20070;-77
2022/01/30 04:10:30;;;;;;;43.67;19.63;;;;;;;1.95;63.72;101145.38;4957238;28;20050;-77
2022/01/30 04:13:21;;;;;;;41.25;19.90;;;;;;;1.76;64.54;101143.25;4935882;29;20051;-77
2022/01/30 04:16:29;;;;;;;48.05;21.75;;;;;;;1.78;64.07;101147.28;4938413;29;20059;-77
2022/01/30 04:19:28;;;;;;;48.22;22.08;;;;;;;1.83;65.98;101150.03;4951595;28;20047;-77
2022/01/30 04:22:29;;;;;;;46.15;20.58;;;;;;;1.67;65.30;101130.28;4954164;28;20058;-77
2022/01/30 04:25:33;;;;;;;43.67;20.50;;;;;;;1.80;65.59;101120.22;4945879;28;20050;-77
2022/01/30 04:28:25;;;;;;;52.42;21.50;;;;;;;1.36;67.14;101120.13;4954299;28;20046;-78
2022/01/30 04:31:32;;;;;;;64.75;24.73;;;;;;;1.90;66.91;101106.97;4956641;28;20518;-77
2022/01/30 04:34:53;;;;;;;50.53;23.83;;;;;;;2.17;66.74;101104.38;4923645;28;20050;-77
2022/01/30 04:57:58;;;;;;;52.45;23.67;;;;;;;1.86;66.27;101119.25;4938314;29;20522;-78
2022/01/30 05:04:19;;;;;;;46.10;21.15;;;;;;;1.66;63.62;101123.28;4952909;28;20050;-76
2022/01/30 05:07:34;;;;;;;45.10;18.75;;;;;;;1.89;62.71;101113.38;4954749;28;20423;-76
2022/01/30 05:10:31;;;;;;;50.30;20.80;;;;;;;1.85;62.54;101097.00;4953334;28;20054;-77
2022/01/30 05:13:42;;;;;;;49.17;21.15;;;;;;;1.84;65.15;101107.94;4956189;29;20415;-77
2022/01/30 05:16:45;;;;;;;46.28;20.08;;;;;;;1.50;64.46;101105.34;4952266;29;20070;-76
2022/01/30 05:19:33;;;;;;;42.80;17.92;;;;;;;1.84;65.33;101102.59;4957153;29;20055;-76
2022/01/30 05:22:33;;;;;;;42.13;19.52;;;;;;;1.95;63.96;101090.94;4934360;29;20531;-76
2022/01/30 05:25:33;;;;;;;45.45;19.73;;;;;;;1.69;63.76;101104.00;4933886;29;20055;-76
2022/01/30 05:28:26;;;;;;;49.47;20.92;;;;;;;1.84;64.35;101091.88;4935369;29;20043;-76
2022/01/30 05:31:39;;;;;;;56.25;21.35;;;;;;;2.05;66.51;101091.88;4956569;28;20050;-76
2022/01/30 05:34:51;;;;;;;46.97;20.13;;;;;;;2.02;63.51;101091.59;4954802;28;20542;-76
2022/01/30 05:37:46;;;;;;;46.88;19.38;;;;;;;1.24;63.38;101088.06;4953164;29;20416;-75
2022/01/30 05:40:50;;;;;;;43.75;18.10;;;;;;;1.21;63.39;101080.53;4952814;29;20062;-76
2022/01/30 05:44:07;;;;;;;43.22;18.83;;;;;;;0.49;65.81;101095.63;4958001;28;20054;-76
2022/01/30 05:47:24;;;;;;;40.28;17.95;;;;;;;0.85;65.55;101111.28;4951189;28;20070;-75
2022/01/30 05:50:39;;;;;;;41.50;20.00;;;;;;;0.52;67.74;101105.81;4958505;28;20046;-76
2022/01/30 05:53:27;;;;;;;41.75;20.13;;;;;;;0.75;67.64;101103.06;4957187;28;20050;-77
2022/01/30 05:56:22;;;;;;;44.83;19.58;;;;;;;0.67;68.20;101098.09;4936803;29;20070;-77
2022/01/30 05:59:07;;;;;;;42.40;18.98;;;;;;;0.58;67.66;101102.19;4938815;29;20067;-76
2022/01/30 06:01:52;;;;;;;31.52;14.52;;;;;;;0.98;68.00;101101.28;4944834;29;20050;-76
2022/01/30 06:04:38;;;;;;;41.22;19.25;;;;;;;0.76;69.01;101101.97;4958692;28;20046;-77
2022/01/30 06:07:28;;;;;;;30.15;14.68;;;;;;;0.89;67.02;101100.06;4956402;29;20050;-77
2022/01/30 06:10:14;;;;;;;43.63;19.88;;;;;;;1.03;66.23;101093.34;4949727;28;20405;-77
2022/01/30 06:12:58;;;;;;;37.25;17.27;;;;;;;1.12;65.14;101102.59;4954769;28;20050;-77
2022/01/30 06:15:43;;;;;;;32.08;15.18;;;;;;;0.89;66.05;101081.31;4950631;28;20057;-77
2022/01/30 06:18:36;;;;;;;41.47;18.58;;;;;;;0.86;66.96;101102.16;4948680;28;20046;-77
2022/01/30 06:21:28;;;;;;;45.53;19.83;;;;;;;1.20;65.65;101091.47;4960358;28;20062;-77
2022/01/30 06:24:39;;;;;;;50.33;21.05;;;;;;;1.10;65.04;101092.13;4951967;28;20035;-77
2022/01/30 06:27:52;;;;;;;47.30;19.90;;;;;;;0.90;65.44;101102.50;4958109;28;20051;-77
2022/01/30 06:30:56;;;;;;;45.88;19.02;;;;;;;0.88;67.82;101098.44;4951257;28;20587;-78
2022/01/30 06:33:59;;;;;;;41.03;17.77;;;;;;;0.79;67.23;101100.72;4954752;28;20062;-77
2022/01/30 06:37:03;;;;;;;37.40;18.75;;;;;;;0.88;66.23;101088.53;4950030;28;20121;-78
2022/01/30 06:40:09;;;;;;;41.88;18.38;;;;;;;0.89;68.80;101084.00;4942774;29;20067;-77
2022/01/30 06:43:14;;;;;;;37.45;16.75;;;;;;;0.82;67.68;101093.00;4944277;29;20113;-78
2022/01/30 06:46:37;;;;;;;53.95;23.17;;;;;;;0.82;68.09;101086.81;4925044;29;20058;-78
2022/01/30 06:49:42;;;;;;;53.33;21.48;;;;;;;0.73;68.34;101086.41;4902937;29;20417;-78
2022/01/30 06:52:53;;;;;;;51.70;23.67;;;;;;;0.86;69.02;101086.09;4944673;28;20050;-78
2022/01/30 06:56:10;;;;;;;49.95;22.95;;;;;;;0.55;67.60;101083.97;4939649;29;20059;-78
2022/01/30 06:59:14;;;;;;;54.85;24.85;;;;;;;1.18;68.99;101090.91;4948156;28;20124;-78
2022/01/30 07:02:18;;;;;;;55.50;22.92;;;;;;;1.40;66.00;101078.41;4950907;29;20416;-77
2022/01/30 07:05:11;;;;;;;46.65;22.67;;;;;;;1.74;64.55;101084.50;4948338;28;20055;-76
2022/01/30 07:08:03;;;;;;;52.97;21.25;;;;;;;2.07;63.30;101080.91;4950863;28;20054;-78
2022/01/30 07:10:48;;;;;;;32.85;15.90;;;;;;;2.17;63.00;101074.84;4951351;28;20066;-76
2022/01/30 07:13:33;;;;;;;42.40;16.88;;;;;;;2.29;62.22;101068.28;4953906;28;20050;-77
2022/01/30 07:16:17;;;;;;;43.33;18.70;;;;;;;2.43;63.23;101091.00;4960547;28;20579;-77
2022/01/30 07:19:02;;;;;;;34.95;17.38;;;;;;;2.41;63.63;101094.97;4955961;28;20059;-77
2022/01/30 07:21:47;;;;;;;41.92;18.23;;;;;;;2.21;61.41;101092.88;4957932;28;20546;-77
2022/01/30 07:24:32;;;;;;;72.30;19.98;;;;;;;2.27;64.71;101096.44;4954933;28;20135;-75
2022/01/30 07:27:17;;;;;;;41.78;17.27;;;;;;;2.27;62.68;101099.94;4956410;28;20074;-75
2022/01/30 07:30:06;;;;;;;39.27;18.60;;;;;;;2.40;62.11;101091.50;4949787;29;20050;-75
2022/01/30 07:32:51;;;;;;;53.28;22.80;;;;;;;2.51;61.16;101084.34;4953055;28;20285;-75
2022/01/30 07:35:39;;;;;;;48.38;22.05;;;;;;;2.43;62.19;101091.00;4955495;28;20050;-75
2022/01/30 07:38:24;;;;;;;141.90;57.55;;;;;;;2.53;61.45;101093.78;4956291;28;20050;-75
2022/01/30 07:41:09;;;;;;;61.17;29.25;;;;;;;2.54;60.60;101091.88;4960194;28;20043;-74
2022/01/30 07:43:54;;;;;;;94.35;45.45;;;;;;;2.31;61.92;101079.59;4957491;28;20050;-75
2022/01/30 07:46:43;;;;;;;83.55;36.85;;;;;;;2.33;62.15;101080.16;4954999;28;20058;-74
2022/01/30 07:49:28;;;;;;;51.60;22.92;;;;;;;2.44;62.30;101089.91;4954494;28;20046;-74
2022/01/30 07:52:12;;;;;;;47.67;21.48;;;;;;;2.44;63.78;101087.22;4958134;28;20050;-75
2022/01/30 07:54:57;;;;;;;53.13;22.00;;;;;;;2.57;62.39;101083.34;4936562;29;20050;-74
2022/01/30 07:57:42;;;;;;;50.60;21.77;;;;;;;2.54;63.54;101090.03;4940602;29;20405;-74
2022/01/30 08:00:28;;;;;;;53.83;19.55;;;;;;;2.66;64.57;101086.38;4938787;29;20055;-74
2022/01/30 08:03:13;;;;;;;47.15;22.00;;;;;;;3.02;64.21;101082.97;4941402;29;20073;-74
2022/01/30 08:05:58;;;;;;;55.25;22.65;;;;;;;2.75;63.83;101103.66;4953165;28;20059;-74
2022/01/30 08:08:42;;;;;;;49.17;23.73;;;;;;;3.20;62.84;101101.38;4951144;28;20522;-74
2022/01/30 08:11:27;;;;;;;45.63;21.35;;;;;;;3.15;64.18;101106.69;4953640;28;20074;-74
2022/01/30 08:14:12;;;;;;;48.13;20.15;;;;;;;3.03;64.55;101110.63;4951120;28;20046;-74
2022/01/30 08:16:57;;;;;;;58.60;23.30;;;;;;;3.27;63.70;101077.78;4956365;28;20047;-74
2022/01/30 08:19:44;;;;;;;43.72;20.20;;;;;;;3.48;63.20;101092.19;4956047;28;20049;-73
2022/01/30 08:22:30;;;;;;;81.85;32.70;;;;;;;3.63;62.78;101083.41;4954143;28;20054;-74
2022/01/30 08:25:16;;;;;;;64.22;29.27;;;;;;;3.92;63.18;101108.84;4953824;28;20046;-74
2022/01/30 08:28:01;;;;;;;61.47;28.83;;;;;;;3.91;62.71;101093.78;4956115;28;20073;-74
2022/01/30 08:30:46;;;;;;;46.30;20.98;;;;;;;3.95;63.65;101111.03;4942950;28;20055;-73
2022/01/30 08:33:30;;;;;;;41.03;19.13;;;;;;;3.94;61.26;101093.25;4951997;28;20054;-73
2022/01/30 08:36:15;;;;;;;47.90;19.70;;;;;;;4.14;60.97;101111.38;4954717;28;20054;-75
2022/01/30 08:39:00;;;;;;;38.22;15.55;;;;;;;4.32;60.25;101096.66;4942933;29;20523;-74
2022/01/30 08:41:45;;;;;;;30.52;14.35;;;;;;;4.33;59.86;101093.69;4954082;28;20046;-74
2022/01/30 08:44:30;;;;;;;;;;;;;;;4.72;59.22;101102.16;4951710;28;20050;-74
2022/01/30 08:47:14;;;;;;;42.10;20.52;;;;;;;4.67;59.76;101094.84;4954444;28;19914;-73
2022/01/30 08:49:59;;;;;;;39.25;15.40;;;;;;;4.54;59.37;101105.31;4958159;28;20070;-75
2022/01/30 08:52:45;;;;;;;37.55;17.65;;;;;;;4.85;59.30;101112.41;4956541;28;20050;-74
2022/01/30 08:55:30;;;;;;;38.50;16.67;;;;;;;4.87;58.86;101117.53;4954226;28;20527;-74
2022/01/30 08:58:15;;;;;;;31.25;14.70;;;;;;;5.11;58.34;101105.94;4954758;28;20054;-74
2022/01/30 09:01:01;;;;;;;43.40;19.15;;;;;;;5.26;58.52;101113.22;4955582;28;20136;-75
2022/01/30 09:03:47;;;;;;;41.58;19.02;;;;;;;5.30;57.16;101100.81;4951973;28;20050;-75
2022/01/30 09:06:31;;;;;;;39.95;23.90;;;;;;;5.60;55.32;101102.66;4956753;28;20051;-73
2022/01/30 09:09:16;;;;;;;45.97;18.85;;;;;;;5.68;54.81;101107.53;4947038;28;20050;-74
2022/01/30 09:12:03;;;;;;;37.38;17.00;;;;;;;5.75;55.03;101113.44;4951544;28;20066;-74
2022/01/30 09:14:47;;;;;;;51.80;22.52;;;;;;;6.03;54.47;101116.63;4946943;28;20058;-74
2022/01/30 09:17:32;;;;;;;40.70;17.42;;;;;;;5.99;54.63;101106.38;4951525;29;20050;-73
2022/01/30 09:20:18;;;;;;;41.42;20.80;;;;;;;6.16;54.18;101122.25;4950014;29;20059;-73
2022/01/30 09:23:02;;;;;;;37.42;18.35;;;;;;;6.21;53.96;101114.13;4948941;28;20059;-73
2022/01/30 09:25:48;;;;;;;41.22;19.10;;;;;;;6.16;54.42;101116.03;4949653;29;20062;-73
2022/01/30 09:28:32;;;;;;;41.08;18.45;;;;;;;6.30;54.45;101136.78;4950255;28;20074;-74
2022/01/30 09:31:17;;;;;;;38.00;18.83;;;;;;;6.52;53.84;101136.41;4950524;28;20042;-74
2022/01/30 09:34:02;;;;;;;44.97;19.63;;;;;;;6.54;54.37;101122.63;4954822;28;20054;-72
2022/01/30 09:36:47;;;;;;;57.03;27.30;;;;;;;6.35;54.62;101130.53;4953935;28;20042;-73
2022/01/30 09:39:33;;;;;;;42.95;19.48;;;;;;;6.42;54.74;101142.69;4952666;28;20054;-74
2022/01/30 09:42:18;;;;;;;59.38;26.98;;;;;;;6.67;54.22;101130.94;4957848;28;20054;-74
2022/01/30 09:45:04;;;;;;;44.38;21.25;;;;;;;6.67;54.68;101122.84;4953400;28;20431;-75
2022/01/30 09:47:50;;;;;;;55.08;26.52;;;;;;;6.84;54.27;101122.47;4950601;28;20403;-74
2022/01/30 09:50:35;;;;;;;57.38;26.90;;;;;;;6.84;54.18;101120.56;4956254;28;20050;-75
2022/01/30 09:53:20;;;;;;;45.75;19.98;;;;;;;6.70;54.83;101126.88;4953952;28;20046;-74
2022/01/30 09:56:06;;;;;;;45.17;21.77;;;;;;;6.82;55.28;101111.94;4953919;28;20058;-73
2022/01/30 09:58:52;;;;;;;60.33;27.30;;;;;;;7.07;54.82;101118.25;4954562;28;20120;-73
2022/01/30 10:01:38;;;;;;;51.47;24.92;;;;;;;7.19;54.35;101124.09;4956331;28;20046;-73
2022/01/30 10:04:23;;;;;;;62.72;27.73;;;;;;;7.17;54.08;101118.16;4946121;29;20557;-74
2022/01/30 10:07:15;;;;;;;51.47;24.08;;;;;;;7.33;54.20;101114.25;4953428;28;20046;-74
2022/01/30 10:10:11;;;;;;;52.42;26.13;;;;;;;7.57;53.82;101120.50;4954049;28;20046;-73
2022/01/30 10:13:07;;;;;;;65.15;26.63;;;;;;;7.49;53.84;101128.44;4955067;28;20058;-74
2022/01/30 10:15:56;;;;;;;58.75;29.33;;;;;;;7.48;55.15;101106.00;4955788;28;20058;-74
2022/01/30 10:18:44;;;;;;;66.25;29.52;;;;;;;7.58;54.42;101113.22;4959343;28;20050;-75
2022/01/30 10:21:29;;;;;;;65.00;29.30;;;;;;;7.69;54.08;101110.13;4956616;28;20416;-76
2022/01/30 10:24:22;;;;;;;65.70;30.42;;;;;;;7.62;53.76;101112.34;4961895;28;20046;-76
2022/01/30 10:27:21;;;;;;;61.22;29.27;;;;;;;7.19;55.92;101097.88;4956908;28;20046;-77
2022/01/30 10:30:07;;;;;;;60.70;29.27;;;;;;;7.65;54.75;101094.75;4962166;28;20070;-75
2022/01/30 10:32:56;;;;;;;62.40;29.73;;;;;;;7.65;54.78;101098.25;4947661;28;20575;-75
2022/01/30 10:35:58;;;;;;;64.22;29.65;;;;;;;7.48;55.64;101087.06;4952136;28;20054;-75
2022/01/30 10:38:52;;;;;;;65.25;31.33;;;;;;;7.75;54.78;101100.06;4955223;28;20050;-75
2022/01/30 10:41:41;;;;;;;66.63;29.98;;;;;;;7.72;54.44;101079.75;4956585;28;20047;-74
2022/01/30 10:44:27;;;;;;;56.65;28.77;;;;;;;7.89;54.13;101089.34;4950823;28;20059;-74
2022/01/30 10:47:32;;;;;;;64.45;30.33;;;;;;;8.07;53.52;101078.59;4952512;28;20050;-73
2022/01/30 10:50:19;;;;;;;65.82;29.50;;;;;;;8.34;52.64;101075.28;4955889;28;20046;-76
2022/01/30 10:53:05;;;;;;;59.42;27.80;;;;;;;8.28;52.96;101076.41;4960667;28;20066;-73
2022/01/30 10:55:51;;;;;;;57.97;29.58;;;;;;;8.18;53.55;101080.03;4953054;28;20062;-73
2022/01/30 10:58:35;;;;;;;70.35;29.85;;;;;;;8.49;52.52;101069.66;4953724;28;20070;-76
2022/01/30 11:01:23;;;;;;;47.95;22.63;;;;;;;8.56;52.27;101066.56;4953631;28;20066;-73
2022/01/30 11:04:26;;;;;;;63.42;29.65;;;;;;;8.66;52.12;101077.28;4954194;28;20114;-76
2022/01/30 11:07:11;;;;;;;59.78;29.23;;;;;;;8.72;52.44;101048.19;4955367;28;20050;-80
2022/01/30 11:10:09;;;;;;;59.88;28.83;;;;;;;8.69;51.38;101054.19;4961844;28;20050;-76
2022/01/30 11:13:07;;;;;;;68.70;30.48;;;;;;;8.48;52.10;101062.59;4956417;28;20050;-76
2022/01/30 11:16:55;;;;;;;59.47;28.85;;;;;;;8.71;52.45;101036.53;4956075;28;20055;-76
2022/01/30 11:18:57;;;;;;;66.38;31.88;;;;;;;8.65;52.18;101042.31;4956215;28;20066;-75
2022/01/30 11:21:47;;;;;;;61.45;28.83;;;;;;;8.78;52.38;101041.59;4955918;28;20050;-76
2022/01/30 11:24:46;;;;;;;67.43;32.10;;;;;;;8.74;52.30;101038.66;4952879;28;20046;-76
2022/01/30 11:27:33;;;;;;;61.28;28.90;;;;;;;8.37;53.07;101031.34;4956466;28;20526;-76
2022/01/30 11:30:17;;;;;;;65.10;31.85;;;;;;;8.71;52.34;101044.66;4953248;28;20054;-76
2022/01/30 11:33:02;;;;;;;55.90;25.38;;;;;;;9.12;51.85;101035.88;4955210;28;20491;-76
2022/01/30 11:35:47;;;;;;;44.97;23.38;;;;;;;9.33;50.74;101031.72;4947699;29;20055;-77
2022/01/30 11:38:35;;;;;;;52.08;24.58;;;;;;;9.25;50.61;101024.22;4954325;29;20058;-76
2022/01/30 11:41:20;;;;;;;70.38;30.70;;;;;;;9.37;51.21;101016.44;4948626;28;20050;-75
2022/01/30 11:44:17;;;;;;;56.83;31.75;;;;;;;8.87;52.82;101013.50;4955405;28;20066;-75
2022/01/30 11:47:16;;;;;;;67.70;32.60;;;;;;;9.38;51.87;101012.63;4950883;28;20042;-75
2022/01/30 11:50:01;;;;;;;68.95;30.27;;;;;;;8.74;52.97;101013.44;4955055;28;20062;-76
2022/01/30 11:52:50;;;;;;;58.90;25.80;;;;;;;9.36;52.11;100998.53;4948660;29;20412;-75
2022/01/30 11:55:46;;;;;;;61.92;32.22;;;;;;;9.56;51.02;100992.72;4955227;28;20046;-75
2022/01/30 11:58:56;;;;;;;67.07;32.13;;;;;;;9.98;50.04;100975.28;4956558;28;20132;-75
2022/01/30 12:01:41;;;;;;;67.13;30.88;;;;;;;10.00;50.19;100981.22;4957601;28;20102;-75
2022/01/30 12:04:55;;;;;;;45.40;24.23;;;;;;;10.13;50.17;100974.94;4957837;28;20047;-76
2022/01/30 12:07:45;;;;;;;61.93;29.37;;;;;;;10.29;49.62;100957.22;4954075;28;20278;-76
2022/01/30 12:10:32;;;;;;;72.40;33.20;;;;;;;10.09;49.86;100968.53;4958575;28;20039;-75
2022/01/30 12:13:43;;;;;;;60.85;31.73;;;;;;;9.74;50.15;100958.44;4956506;28;20047;-75
2022/01/30 12:16:46;;;;;;;68.60;32.42;;;;;;;9.99;50.55;100944.31;4958345;28;20094;-75
2022/01/30 12:19:30;;;;;;;65.13;30.33;;;;;;;10.24;49.51;100935.59;4956058;28;20054;-75
2022/01/30 12:22:15;;;;;;;67.85;30.23;;;;;;;10.26;48.93;100933.38;4954494;28;20043;-75
2022/01/30 12:25:30;;;;;;;57.38;24.67;;;;;;;10.37;49.21;100923.06;4956476;28;20043;-75
2022/01/30 12:28:15;;;;;;;60.58;30.67;;;;;;;10.72;48.81;100918.66;4955127;28;20403;-76
2022/01/30 12:31:00;;;;;;;46.33;23.65;;;;;;;10.57;48.55;100906.25;4959183;28;20043;-75
2022/01/30 12:33:44;;;;;;;57.67;30.73;;;;;;;10.60;48.87;100910.28;4958024;28;20051;-75
2022/01/30 12:36:31;;;;;;;47.17;23.65;;;;;;;10.44;49.43;100904.41;4954938;28;20047;-75
2022/01/30 12:39:19;;;;;;;72.82;30.67;;;;;;;10.55;48.23;100899.53;4959157;28;20043;-75
2022/01/30 12:42:04;;;;;;;70.57;33.15;;;;;;;10.79;48.19;100910.06;4956784;28;20039;-76
2022/01/30 12:44:49;;;;;;;50.42;24.23;;;;;;;10.88;46.85;100894.59;4954585;28;20043;-75
2022/01/30 12:47:59;;;;;;;65.00;32.08;;;;;;;10.35;48.30;100895.41;4955532;28;20055;-75
2022/01/30 12:50:46;;;;;;;65.40;30.63;;;;;;;10.47;48.05;100902.97;4947587;28;20035;-75
2022/01/30 12:53:35;;;;;;;66.50;32.28;;;;;;;11.11;47.52;100886.06;4944415;28;20051;-76
2022/01/30 12:56:19;;;;;;;57.78;31.50;;;;;;;11.20;46.79;100888.81;4950419;28;20047;-76
2022/01/30 12:59:08;;;;;;;50.45;24.80;;;;;;;11.43;45.95;100878.63;4945262;28;20055;-76
2022/01/30 13:02:03;;;;;;;72.25;32.40;;;;;;;11.36;45.96;100878.28;4945312;28;20656;-75
2022/01/30 13:04:58;;;;;;;56.33;29.80;;;;;;;10.93;46.38;100878.94;4947836;28;20035;-76
2022/01/30 13:07:51;;;;;;;61.13;29.58;;;;;;;11.34;45.40;100884.03;4943368;29;20055;-75
2022/01/30 13:10:35;;;;;;;65.65;30.83;;;;;;;17.49;33.53;100891.00;4955818;28;20035;-76
2022/01/30 13:13:20;;;;;;;63.13;30.27;;;;;;;20.51;27.78;100890.81;4950606;28;20039;-77
2022/01/30 13:16:08;;;;;;;56.60;29.50;;;;;;;22.84;24.96;100892.38;4949962;28;20047;-76
2022/01/30 13:18:54;;;;;;;55.15;29.63;;;;;;;23.93;22.67;100895.47;4954258;28;20043;-76
2022/01/30 13:21:40;;;;;;;;;;;;;;;24.24;21.69;100902.94;4956858;28;20039;-77
2022/01/30 13:24:25;;;;;;;;;;;;;;;25.13;21.39;100897.66;4953369;28;19914;-76
2022/01/30 13:27:09;;;;;;;51.75;29.05;;;;;;;23.47;22.54;100893.56;4948458;28;20431;-77
2022/01/30 13:29:55;;;;;;;;;;;;;;;25.10;21.30;100887.31;4956303;28;20496;-77
2022/01/30 13:32:40;;;;;;;38.78;21.13;;;;;;;26.05;19.33;100885.63;4949936;28;20383;-76
2022/01/30 13:35:29;;;;;;;53.03;29.25;;;;;;;24.96;20.30;100893.81;4954479;29;20043;-76
2022/01/30 13:38:14;;;;;;;57.05;31.98;;;;;;;25.20;20.23;100892.00;4956096;28;20047;-77
2022/01/30 13:41:03;;;;;;;;;;;;;;;25.82;19.66;100891.06;4954645;28;20051;-76
2022/01/30 13:43:58;;;;;;;52.08;28.05;;;;;;;25.17;20.31;100887.28;4956765;28;19914;-76
2022/01/30 13:49:43;;;;;;;55.10;30.15;;;;;;;24.12;21.29;100881.13;4945390;29;20307;-76
2022/01/30 13:52:31;;;;;;;55.47;30.27;;;;;;;23.56;21.71;100879.31;4947647;28;20043;-76
2022/01/30 13:55:16;;;;;;;60.88;30.40;;;;;;;21.25;24.06;100863.88;4946225;29;20043;-77
2022/01/30 13:58:03;;;;;;;49.85;27.95;;;;;;;21.37;23.74;100871.09;4952740;28;20035;-76
2022/01/30 14:00:48;;;;;;;59.80;30.38;;;;;;;20.64;25.16;100878.31;4950685;29;20501;-77